Time;durP1;ratioP1;P1;durP2;ratioP2;P2;SDS_P1;SDS_P2;PMS_P1;PMS_P2;Temp;Humidity;BMP_temperature;BMP_pressure;BME280_temperature;BME280_humidity;BME280_pressure;Samples;Min_cycle;Max_cycle;Signal;HPM_P1;HPM_P2
2024/04/12 00:01:05;;;;;;;44.38;24.73;;;;;;;;;;5563802;25;20034;-88
2024/04/12 00:03:32;;;;;;;44.70;24.85;;;;;;;;;;5566679;25;20021;-94
2024/04/12 00:06:05;;;;;;;47.22;25.58;;;;;;;;;;5532743;25;20020;-88
2024/04/12 00:08:34;;;;;;;40.67;24.05;;;;;;;;;;5534101;25;20012;-89
2024/04/12 00:11:03;;;;;;;46.80;23.83;;;;;;;;;;5534557;25;20021;-88
2024/04/12 00:13:36;;;;;;;47.55;25.25;;;;;;;;;;5565630;25;20339;-88
2024/04/12 00:16:08;;;;;;;46.92;25.88;;;;;;;;;;5564768;25;20029;-88
2024/04/12 00:18:36;;;;;;;50.63;25.67;;;;;;;;;;5566223;25;20020;-93
2024/04/12 00:21:05;;;;;;;52.00;27.52;;;;;;;;;;5532969;25;20028;-93
2024/04/12 00:23:35;;;;;;;52.13;28.42;;;;;;;;;;5532664;25;20033;-88
2024/04/12 00:26:03;;;;;;;53.83;28.02;;;;;;;;;;5532595;25;20358;-88
2024/04/12 00:28:31;;;;;;;57.13;29.23;;;;;;;;;;5533600;25;20025;-88
2024/04/12 00:31:02;;;;;;;60.50;29.13;;;;;;;;;;5533037;25;20029;-94
2024/04/12 00:33:34;;;;;;;60.90;29.48;;;;;;;;;;5533335;25;20036;-88
2024/04/12 00:36:11;;;;;;;54.50;28.33;;;;;;;;;;5534219;25;20021;-88
2024/04/12 00:38:41;;;;;;;60.33;32.05;;;;;;;;;;5565803;25;20022;-88
2024/04/12 00:41:18;;;;;;;61.25;29.90;;;;;;;;;;5533323;25;20013;-87
2024/04/12 00:43:47;;;;;;;62.13;32.25;;;;;;;;;;5532883;25;20016;-88
2024/04/12 00:46:19;;;;;;;66.82;32.83;;;;;;;;;;5565035;25;20013;-88
2024/04/12 00:48:46;;;;;;;56.17;30.50;;;;;;;;;;5566479;25;20014;-94
2024/04/12 00:51:17;;;;;;;61.20;31.88;;;;;;;;;;5532280;25;20021;-88
2024/04/12 00:53:46;;;;;;;64.20;32.03;;;;;;;;;;5564782;25;20013;-88
2024/04/12 00:56:13;;;;;;;64.10;32.67;;;;;;;;;;5565441;25;20012;-88
2024/04/12 00:58:47;;;;;;;64.20;31.92;;;;;;;;;;5563973;25;20012;-88
2024/04/12 01:01:17;;;;;;;65.03;34.50;;;;;;;;;;5564160;25;20017;-88
2024/04/12 01:03:49;;;;;;;63.08;32.83;;;;;;;;;;5564472;25;20029;-88
2024/04/12 01:06:17;;;;;;;68.57;35.28;;;;;;;;;;5540738;25;20001;-93
2024/04/12 01:08:46;;;;;;;61.33;33.00;;;;;;;;;;5539764;25;20010;-88
2024/04/12 01:11:13;;;;;;;61.70;34.13;;;;;;;;;;5564735;25;20005;-88
2024/04/12 01:13:46;;;;;;;63.08;34.40;;;;;;;;;;5531914;25;20016;-88
2024/04/12 01:16:13;;;;;;;62.05;33.13;;;;;;;;;;5533685;25;20025;-89
2024/04/12 01:18:42;;;;;;;59.65;33.95;;;;;;;;;;5532497;25;20454;-89
2024/04/12 01:21:13;;;;;;;64.88;34.17;;;;;;;;;;5564513;25;20475;-89
2024/04/12 01:23:42;;;;;;;60.50;35.42;;;;;;;;;;5562930;25;20025;-89
2024/04/12 01:26:10;;;;;;;61.70;34.55;;;;;;;;;;5531811;25;20025;-88
2024/04/12 01:28:37;;;;;;;56.67;34.45;;;;;;;;;;5531145;25;20013;-88
2024/04/12 01:31:05;;;;;;;58.20;34.25;;;;;;;;;;5563756;25;20017;-88
2024/04/12 01:33:36;;;;;;;53.13;32.88;;;;;;;;;;5565478;25;20025;-88
2024/04/12 01:36:05;;;;;;;49.95;32.58;;;;;;;;;;5531831;25;20352;-88
2024/04/12 01:38:36;;;;;;;51.72;33.33;;;;;;;;;;5551529;25;19984;-94
2024/04/12 01:41:08;;;;;;;44.97;31.30;;;;;;;;;;5531451;25;20030;-94
2024/04/12 01:43:36;;;;;;;48.22;31.77;;;;;;;;;;5531431;25;20025;-93
2024/04/12 01:46:04;;;;;;;45.67;32.63;;;;;;;;;;5531332;25;20024;-94
2024/04/12 01:48:33;;;;;;;46.88;31.65;;;;;;;;;;5533224;25;20494;-88
2024/04/12 01:51:04;;;;;;;45.30;31.60;;;;;;;;;;5531590;25;20347;-89
2024/04/12 01:53:40;;;;;;;44.40;31.58;;;;;;;;;;5532028;25;20021;-89
2024/04/12 01:56:13;;;;;;;43.88;30.65;;;;;;;;;;5532026;25;20016;-93
2024/04/12 01:58:42;;;;;;;41.73;30.50;;;;;;;;;;5530128;25;20024;-89
2024/04/12 02:01:19;;;;;;;40.90;29.05;;;;;;;;;;5534159;25;20253;-88
2024/04/12 02:03:47;;;;;;;39.83;29.25;;;;;;;;;;5531167;25;20049;-88
2024/04/12 02:06:16;;;;;;;41.05;29.83;;;;;;;;;;5531074;25;20017;-88
2024/04/12 02:08:44;;;;;;;41.63;29.98;;;;;;;;;;5564810;25;20017;-88
2024/04/12 02:11:11;;;;;;;42.17;30.35;;;;;;;;;;5531950;25;20026;-88
2024/04/12 02:13:40;;;;;;;39.40;29.02;;;;;;;;;;5563488;25;20016;-89
2024/04/12 02:16:10;;;;;;;39.20;29.42;;;;;;;;;;5563460;25;20025;-88
2024/04/12 02:18:41;;;;;;;40.83;30.50;;;;;;;;;;5531553;25;20369;-95
2024/04/12 02:21:10;;;;;;;38.90;28.60;;;;;;;;;;5532067;25;20017;-88
2024/04/12 02:23:38;;;;;;;41.55;28.92;;;;;;;;;;5563728;25;20022;-89
2024/04/12 02:26:06;;;;;;;42.80;29.95;;;;;;;;;;5531239;25;20005;-89
2024/04/12 02:28:36;;;;;;;42.35;30.35;;;;;;;;;;5532027;25;20017;-88
2024/04/12 02:31:08;;;;;;;46.78;32.00;;;;;;;;;;5562437;25;20013;-88
2024/04/12 02:33:36;;;;;;;48.78;32.00;;;;;;;;;;5530722;25;20021;-88
2024/04/12 02:36:11;;;;;;;42.58;31.95;;;;;;;;;;5562641;25;20017;-88
2024/04/12 02:38:42;;;;;;;44.42;30.70;;;;;;;;;;5532177;25;20013;-89
2024/04/12 02:41:16;;;;;;;45.08;30.83;;;;;;;;;;5535029;25;20016;-89
2024/04/12 02:43:45;;;;;;;47.63;31.27;;;;;;;;;;5530585;25;20021;-89
2024/04/12 02:46:13;;;;;;;43.42;29.33;;;;;;;;;;5563287;25;20020;-89
2024/04/12 02:48:43;;;;;;;38.95;28.92;;;;;;;;;;5531703;25;20357;-88
2024/04/12 02:51:14;;;;;;;36.72;27.33;;;;;;;;;;5530484;25;20012;-87
2024/04/12 02:53:42;;;;;;;40.90;28.45;;;;;;;;;;5533535;25;20017;-88
2024/04/12 02:56:11;;;;;;;34.30;25.77;;;;;;;;;;5534488;25;20020;-89
2024/04/12 02:58:40;;;;;;;35.08;26.85;;;;;;;;;;5533479;25;20025;-88
2024/04/12 03:01:08;;;;;;;35.08;26.55;;;;;;;;;;5533599;25;20017;-88
2024/04/12 03:03:36;;;;;;;37.95;28.30;;;;;;;;;;5535442;25;20009;-89
2024/04/12 03:06:09;;;;;;;35.38;27.45;;;;;;;;;;5534764;25;20017;-88
2024/04/12 03:08:38;;;;;;;36.28;27.55;;;;;;;;;;5539596;25;20013;-94
2024/04/12 03:11:21;;;;;;;36.95;27.95;;;;;;;;;;5536918;25;20016;-88
2024/04/12 03:13:52;;;;;;;36.15;28.50;;;;;;;;;;5533569;25;20013;-88
2024/04/12 03:16:20;;;;;;;37.08;28.15;;;;;;;;;;5534000;25;20020;-88
2024/04/12 03:18:48;;;;;;;38.25;27.40;;;;;;;;;;5533775;25;20029;-87
2024/04/12 03:21:16;;;;;;;37.97;28.05;;;;;;;;;;5566054;25;20016;-87
2024/04/12 03:23:44;;;;;;;37.90;28.58;;;;;;;;;;5566989;25;20017;-89
2024/04/12 03:26:12;;;;;;;35.63;26.85;;;;;;;;;;5534957;25;20021;-89
2024/04/12 03:28:40;;;;;;;31.27;25.98;;;;;;;;;;5533248;25;20103;-94
2024/04/12 03:31:11;;;;;;;31.00;24.90;;;;;;;;;;5566022;25;20020;-94
2024/04/12 03:33:45;;;;;;;33.30;25.38;;;;;;;;;;5532910;25;20459;-93
2024/04/12 03:41:50;;;;;;;30.08;22.65;;;;;;;;;;5565731;25;20352;-89
2024/04/12 03:44:18;;;;;;;29.98;22.75;;;;;;;;;;5533666;25;20013;-88
2024/04/12 03:46:49;;;;;;;29.92;22.98;;;;;;;;;;5566327;25;20013;-87
2024/04/12 03:49:23;;;;;;;27.13;20.13;;;;;;;;;;5534135;25;20013;-89
2024/04/12 03:51:57;;;;;;;25.85;21.25;;;;;;;;;;5533949;25;20005;-93
2024/04/12 03:54:25;;;;;;;25.42;19.60;;;;;;;;;;5534541;25;20032;-88
2024/04/12 03:56:56;;;;;;;25.27;19.85;;;;;;;;;;5535058;25;20025;-93
2024/04/12 03:59:37;;;;;;;22.45;17.83;;;;;;;;;;5533020;25;20017;-93
2024/04/12 04:02:07;;;;;;;23.05;17.45;;;;;;;;;;5532543;25;20020;-93
2024/04/12 04:04:37;;;;;;;19.20;16.55;;;;;;;;;;5533454;25;20009;-93
2024/04/12 04:07:05;;;;;;;18.80;15.57;;;;;;;;;;5532317;25;20020;-94
2024/04/12 04:09:32;;;;;;;18.40;14.63;;;;;;;;;;5532862;25;20017;-88
2024/04/12 04:12:00;;;;;;;17.27;12.82;;;;;;;;;;5535337;25;20016;-93
2024/04/12 04:14:28;;;;;;;20.25;12.85;;;;;;;;;;5533932;25;20358;-89
2024/04/12 04:16:56;;;;;;;16.05;12.73;;;;;;;;;;5532756;25;20024;-88
2024/04/12 04:19:39;;;;;;;15.80;12.38;;;;;;;;;;5574517;25;19993;-87
2024/04/12 04:24:54;;;;;;;17.50;13.50;;;;;;;;;;5566096;25;20017;-93
2024/04/12 04:27:22;;;;;;;17.38;13.00;;;;;;;;;;5534519;25;20016;-89
2024/04/12 04:29:55;;;;;;;16.50;12.77;;;;;;;;;;5533468;25;20013;-89
2024/04/12 04:32:23;;;;;;;17.40;12.93;;;;;;;;;;5503070;25;20008;-93
2024/04/12 04:35:08;;;;;;;17.75;12.38;;;;;;;;;;5533356;25;20021;-89
2024/04/12 04:37:39;;;;;;;17.00;13.43;;;;;;;;;;5564878;25;20017;-88
2024/04/12 04:40:17;;;;;;;20.13;14.35;;;;;;;;;;5532817;25;20351;-88
2024/04/12 04:42:49;;;;;;;18.02;14.05;;;;;;;;;;5532777;25;20029;-93
2024/04/12 04:45:18;;;;;;;17.67;12.45;;;;;;;;;;5532576;25;20020;-93
2024/04/12 04:47:45;;;;;;;16.77;12.98;;;;;;;;;;5532512;25;20028;-93
2024/04/12 04:50:13;;;;;;;16.67;12.82;;;;;;;;;;5532408;25;20025;-93
2024/04/12 04:52:40;;;;;;;23.35;13.38;;;;;;;;;;5532618;25;20029;-93
2024/04/12 04:55:08;;;;;;;22.55;13.15;;;;;;;;;;5532481;25;20029;-93
2024/04/12 04:57:36;;;;;;;17.40;12.90;;;;;;;;;;5531775;25;20020;-93
2024/04/12 05:00:06;;;;;;;19.48;12.75;;;;;;;;;;5563959;25;20020;-93
2024/04/12 05:02:39;;;;;;;20.48;13.85;;;;;;;;;;5531713;25;20017;-93
2024/04/12 05:05:06;;;;;;;19.42;13.55;;;;;;;;;;5532607;25;20017;-94
2024/04/12 05:07:34;;;;;;;17.02;12.13;;;;;;;;;;5532050;25;20029;-93
2024/04/12 05:10:14;;;;;;;18.48;12.05;;;;;;;;;;5532215;25;20021;-93
2024/04/12 05:12:42;;;;;;;18.63;11.68;;;;;;;;;;5533057;25;20033;-93
2024/04/12 05:15:48;;;;;;;15.48;10.50;;;;;;;;;;5532382;25;20027;-94
2024/04/12 05:18:03;;;;;;;16.58;11.38;;;;;;;;;;5564626;25;20008;-93
2024/04/12 05:20:38;;;;;;;14.20;10.43;;;;;;;;;;5531860;25;20020;-93
2024/04/12 05:23:11;;;;;;;15.13;10.93;;;;;;;;;;5532312;25;20021;-93
2024/04/12 05:25:51;;;;;;;15.45;10.18;;;;;;;;;;5532314;25;20020;-93
2024/04/12 05:28:26;;;;;;;14.65;10.13;;;;;;;;;;5533386;25;20017;-93
2024/04/12 05:30:54;;;;;;;14.30;10.48;;;;;;;;;;5532485;25;20021;-93
2024/04/12 05:33:23;;;;;;;13.95;10.10;;;;;;;;;;5531580;25;20016;-92
2024/04/12 05:35:50;;;;;;;16.88;10.52;;;;;;;;;;5531776;25;20481;-93
2024/04/12 05:38:21;;;;;;;14.07;9.93;;;;;;;;;;5531036;25;20016;-93
2024/04/12 05:40:52;;;;;;;17.05;10.93;;;;;;;;;;5531825;25;20029;-93
2024/04/12 05:43:21;;;;;;;14.88;10.18;;;;;;;;;;5535820;25;20017;-93
2024/04/12 05:45:50;;;;;;;15.23;10.75;;;;;;;;;;5531249;25;20024;-94
2024/04/12 05:48:19;;;;;;;16.40;11.43;;;;;;;;;;5530807;25;20024;-93
2024/04/12 05:50:48;;;;;;;16.92;11.00;;;;;;;;;;5533118;25;20029;-94
2024/04/12 05:53:16;;;;;;;18.13;11.18;;;;;;;;;;5530435;25;20029;-93
2024/04/12 05:55:52;;;;;;;14.70;10.98;;;;;;;;;;5531521;25;20028;-93
2024/04/12 05:58:23;;;;;;;17.50;12.07;;;;;;;;;;5531325;25;20025;-94
2024/04/12 06:00:50;;;;;;;16.52;11.57;;;;;;;;;;5530907;25;20024;-94
2024/04/12 06:03:18;;;;;;;15.98;11.45;;;;;;;;;;5531363;25;20025;-94
2024/04/12 06:05:56;;;;;;;15.48;11.07;;;;;;;;;;5530980;25;20028;-93
2024/04/12 06:08:23;;;;;;;15.82;11.50;;;;;;;;;;5530850;25;20028;-94
2024/04/12 06:10:55;;;;;;;14.93;11.63;;;;;;;;;;5500720;25;20779;-93
2024/04/12 06:13:25;;;;;;;17.70;11.10;;;;;;;;;;5530850;25;20503;-94
2024/04/12 06:15:54;;;;;;;15.45;11.15;;;;;;;;;;5531072;25;20044;-94
2024/04/12 06:18:21;;;;;;;13.20;10.55;;;;;;;;;;5531985;25;20476;-93
2024/04/12 06:20:49;;;;;;;14.98;10.55;;;;;;;;;;5530570;25;20020;-93
2024/04/12 06:23:19;;;;;;;15.00;10.05;;;;;;;;;;5530692;25;20087;-94
2024/04/12 06:25:53;;;;;;;15.30;11.00;;;;;;;;;;5562712;25;20103;-93
2024/04/12 06:28:25;;;;;;;12.60;10.13;;;;;;;;;;5533300;25;20363;-94
2024/04/12 06:30:56;;;;;;;12.45;9.68;;;;;;;;;;5533799;25;20468;-94
2024/04/12 06:33:23;;;;;;;15.77;10.05;;;;;;;;;;5534533;25;20479;-93
2024/04/12 06:35:52;;;;;;;14.73;10.13;;;;;;;;;;5566737;25;20471;-93
2024/04/12 06:38:22;;;;;;;13.85;9.60;;;;;;;;;;5534382;25;20458;-94
2024/04/12 06:40:53;;;;;;;14.93;10.73;;;;;;;;;;5534473;25;20463;-93
2024/04/12 06:43:23;;;;;;;11.73;10.10;;;;;;;;;;5534028;25;20025;-94
2024/04/12 06:45:57;;;;;;;13.98;10.27;;;;;;;;;;5533978;25;20021;-93
2024/04/12 06:48:26;;;;;;;13.75;9.13;;;;;;;;;;5534221;25;20020;-93
2024/04/12 06:50:57;;;;;;;12.43;9.32;;;;;;;;;;5533674;25;20028;-93
2024/04/12 06:53:24;;;;;;;13.13;10.18;;;;;;;;;;5534001;25;20364;-94
2024/04/12 06:55:55;;;;;;;14.65;10.40;;;;;;;;;;5566724;25;20021;-94
2024/04/12 06:58:22;;;;;;;12.15;9.63;;;;;;;;;;5533705;25;20026;-94
2024/04/12 07:00:58;;;;;;;11.45;9.27;;;;;;;;;;5533563;25;20037;-93
2024/04/12 07:03:27;;;;;;;12.88;9.50;;;;;;;;;;5534207;25;20029;-94
2024/04/12 07:05:54;;;;;;;12.82;9.85;;;;;;;;;;5533902;25;20029;-94
2024/04/12 07:08:22;;;;;;;14.73;10.55;;;;;;;;;;5533199;25;20030;-94
2024/04/12 07:10:49;;;;;;;11.18;9.60;;;;;;;;;;5533583;25;20030;-94
2024/04/12 07:13:17;;;;;;;11.95;9.88;;;;;;;;;;5533879;25;20474;-93
2024/04/12 07:15:45;;;;;;;12.82;9.73;;;;;;;;;;5533200;25;20021;-93
2024/04/12 07:18:14;;;;;;;10.98;9.65;;;;;;;;;;5533700;25;20028;-94
2024/04/12 07:20:44;;;;;;;12.70;8.98;;;;;;;;;;5533580;25;20021;-94
2024/04/12 07:23:15;;;;;;;11.27;9.15;;;;;;;;;;5533581;25;20017;-94
2024/04/12 07:25:45;;;;;;;13.18;11.00;;;;;;;;;;5525818;25;19985;-93
2024/04/12 07:28:15;;;;;;;10.93;8.98;;;;;;;;;;5559071;25;19988;-94
2024/04/12 07:30:45;;;;;;;12.55;9.88;;;;;;;;;;5550900;25;20004;-94
2024/04/12 07:33:13;;;;;;;11.15;8.73;;;;;;;;;;5533107;25;20364;-94
2024/04/12 07:35:43;;;;;;;12.43;10.07;;;;;;;;;;5533103;25;20009;-94
2024/04/12 07:38:11;;;;;;;12.20;9.20;;;;;;;;;;5533579;25;20025;-94
2024/04/12 07:40:39;;;;;;;11.13;9.75;;;;;;;;;;5532261;25;20020;-94
2024/04/12 07:43:11;;;;;;;12.00;9.40;;;;;;;;;;5533337;25;20362;-94
2024/04/12 07:45:39;;;;;;;11.02;8.93;;;;;;;;;;5542309;25;20033;-94
2024/04/12 07:48:11;;;;;;;12.23;8.88;;;;;;;;;;5558145;25;19988;-94
2024/04/12 07:50:39;;;;;;;10.38;8.73;;;;;;;;;;5558471;25;20000;-94
2024/04/12 07:53:15;;;;;;;10.18;7.82;;;;;;;;;;5540142;25;20319;-94
2024/04/12 07:55:44;;;;;;;11.27;8.45;;;;;;;;;;5532825;25;20017;-94
2024/04/12 07:58:12;;;;;;;12.52;8.07;;;;;;;;;;5533641;25;20021;-94
2024/04/12 08:00:46;;;;;;;9.43;8.40;;;;;;;;;;5532271;25;20459;-94
2024/04/12 08:03:16;;;;;;;9.27;7.93;;;;;;;;;;5532700;25;20020;-94
2024/04/12 08:06:05;;;;;;;9.05;7.75;;;;;;;;;;5564722;25;20017;-94
2024/04/12 08:08:43;;;;;;;9.07;7.57;;;;;;;;;;5533207;25;20019;-94
2024/04/12 08:14:07;;;;;;;9.70;8.23;;;;;;;;;;5565534;25;20020;-95
2024/04/12 08:16:46;;;;;;;10.63;7.13;;;;;;;;;;5533526;25;20029;-94
2024/04/12 08:19:21;;;;;;;9.10;7.00;;;;;;;;;;5532858;25;20363;-94
2024/04/12 08:21:49;;;;;;;10.00;7.10;;;;;;;;;;5533264;25;20029;-94
2024/04/12 08:24:22;;;;;;;8.13;6.68;;;;;;;;;;5532290;25;20017;-93
2024/04/12 08:26:51;;;;;;;7.97;6.55;;;;;;;;;;5534433;25;20017;-94
2024/04/12 08:29:26;;;;;;;7.13;5.88;;;;;;;;;;5502907;25;20029;-94
2024/04/12 08:34:44;;;;;;;7.95;6.40;;;;;;;;;;5565831;25;20017;-95
2024/04/12 08:37:16;;;;;;;9.35;6.15;;;;;;;;;;5531832;25;20021;-94
2024/04/12 08:39:44;;;;;;;9.35;6.25;;;;;;;;;;5533074;25;20017;-94
2024/04/12 08:42:14;;;;;;;10.82;7.43;;;;;;;;;;5532536;25;20475;-94
2024/04/12 08:44:46;;;;;;;8.93;6.38;;;;;;;;;;5502302;25;20030;-94
2024/04/12 08:50:03;;;;;;;9.32;6.60;;;;;;;;;;5565097;25;20029;-94
2024/04/12 08:52:48;;;;;;;10.98;6.93;;;;;;;;;;5502148;25;20021;-94
2024/04/12 08:55:20;;;;;;;10.75;6.75;;;;;;;;;;5495641;26;20025;-94
2024/04/12 08:57:52;;;;;;;9.52;6.50;;;;;;;;;;5495295;26;20472;-94
2024/04/12 09:00:21;;;;;;;10.43;7.07;;;;;;;;;;5495256;26;20021;-94
2024/04/12 09:02:50;;;;;;;10.38;5.65;;;;;;;;;;5465300;26;20018;-94
2024/04/12 09:05:22;;;;;;;8.80;6.43;;;;;;;;;;5495780;26;20472;-94
2024/04/12 09:07:56;;;;;;;10.02;6.38;;;;;;;;;;5495810;26;20013;-95
2024/04/12 09:10:25;;;;;;;10.40;6.18;;;;;;;;;;5495587;26;20014;-96
2024/04/12 09:12:52;;;;;;;7.75;5.82;;;;;;;;;;5494855;26;20030;-94
2024/04/12 09:15:24;;;;;;;13.32;6.63;;;;;;;;;;5496181;26;20022;-95
2024/04/12 09:18:01;;;;;;;10.57;5.85;;;;;;;;;;5494856;26;20026;-94
2024/04/12 09:20:35;;;;;;;8.90;5.47;;;;;;;;;;5495209;26;20022;-95
2024/04/12 09:23:16;;;;;;;10.98;6.07;;;;;;;;;;5494989;26;20472;-94
2024/04/12 09:25:45;;;;;;;8.95;5.03;;;;;;;;;;5495907;26;20460;-94
2024/04/12 09:28:13;;;;;;;9.48;5.47;;;;;;;;;;5496403;26;20017;-94
2024/04/12 09:33:31;;;;;;;9.38;4.90;;;;;;;;;;5527364;26;20021;-95
2024/04/12 09:36:06;;;;;;;7.32;4.40;;;;;;;;;;5494990;26;20049;-94
2024/04/12 09:38:38;;;;;;;8.60;5.70;;;;;;;;;;5494937;26;20472;-95
2024/04/12 09:41:28;;;;;;;9.13;4.93;;;;;;;;;;5495076;26;20021;-94
2024/04/12 09:43:59;;;;;;;11.65;5.90;;;;;;;;;;5494949;26;20021;-94
2024/04/12 09:46:46;;;;;;;14.23;5.95;;;;;;;;;;5526925;26;20034;-95
2024/04/12 10:37:39;;;;;;;;;;;;;;;;;;5526457;26;20030;-95
2024/04/12 10:39:49;;;;;;;8.95;4.45;;;;;;;;;;5500482;26;19947;-95
2024/04/12 10:42:19;;;;;;;10.35;4.28;;;;;;;;;;5494224;26;20022;-94
2024/04/12 10:44:51;;;;;;;9.10;4.40;;;;;;;;;;5494333;26;20030;-95
2024/04/12 10:47:22;;;;;;;8.90;4.20;;;;;;;;;;5494029;26;20025;-94
2024/04/12 10:49:50;;;;;;;8.10;4.40;;;;;;;;;;5493757;26;20014;-95
2024/04/12 10:52:28;;;;;;;7.15;4.30;;;;;;;;;;5493694;26;20468;-94
2024/04/12 10:54:59;;;;;;;8.65;3.80;;;;;;;;;;5493764;26;20364;-94
2024/04/12 10:57:29;;;;;;;7.35;3.72;;;;;;;;;;5493990;26;20026;-94
2024/04/12 11:00:00;;;;;;;7.25;4.35;;;;;;;;;;5493173;26;20021;-94
2024/04/12 11:02:30;;;;;;;7.75;4.63;;;;;;;;;;5462168;26;20021;-94
2024/04/12 11:05:38;;;;;;;8.93;3.33;;;;;;;;;;5492808;26;20034;-94
2024/04/12 11:07:55;;;;;;;9.73;4.15;;;;;;;;;;5524995;26;20017;-95
2024/04/12 11:10:38;;;;;;;5.10;3.58;;;;;;;;;;5525527;26;20472;-94
2024/04/12 11:13:07;;;;;;;6.97;3.80;;;;;;;;;;5493873;26;20017;-94
2024/04/12 11:32:05;;;;;;;7.13;3.22;;;;;;;;;;5528533;26;20031;-94
2024/04/12 11:34:33;;;;;;;6.13;3.08;;;;;;;;;;5496877;26;20017;-94
2024/04/12 11:37:05;;;;;;;8.02;2.95;;;;;;;;;;5496628;26;20009;-95
2024/04/12 11:39:38;;;;;;;5.22;3.08;;;;;;;;;;5496446;26;20017;-95
2024/04/12 11:42:06;;;;;;;4.72;2.35;;;;;;;;;;5496670;26;20033;-94
2024/04/12 11:44:36;;;;;;;5.57;2.70;;;;;;;;;;5496193;26;20373;-94
2024/04/12 11:47:04;;;;;;;4.80;2.75;;;;;;;;;;5467154;26;20022;-95
2024/04/12 11:49:49;;;;;;;6.78;3.13;;;;;;;;;;5517372;25;19994;-94
2024/04/12 11:52:17;;;;;;;5.38;2.58;;;;;;;;;;5521179;25;19992;-94
2024/04/12 11:54:53;;;;;;;5.30;2.95;;;;;;;;;;5574860;25;20000;-95
2024/04/12 11:57:22;;;;;;;5.72;2.95;;;;;;;;;;5533560;25;20029;-95
2024/04/12 11:59:58;;;;;;;6.78;4.72;;;;;;;;;;5565985;25;20023;-94
2024/04/12 12:02:27;;;;;;;6.40;2.67;;;;;;;;;;5533207;25;20021;-95
2024/04/12 12:04:57;;;;;;;6.00;3.20;;;;;;;;;;5533037;25;20026;-95
2024/04/12 12:07:26;;;;;;;6.68;3.25;;;;;;;;;;5533640;25;20024;-94
2024/04/12 12:09:54;;;;;;;9.88;3.95;;;;;;;;;;5542646;25;20002;-95
2024/04/12 12:12:22;;;;;;;7.88;4.28;;;;;;;;;;5527421;25;19984;-94
2024/04/12 12:14:52;;;;;;;7.32;2.25;;;;;;;;;;5527250;25;19985;-94
2024/04/12 12:17:22;;;;;;;5.78;2.03;;;;;;;;;;5509168;25;20008;-95
2024/04/12 12:19:52;;;;;;;3.65;1.88;;;;;;;;;;5532760;25;20022;-94
2024/04/12 12:22:21;;;;;;;6.28;1.85;;;;;;;;;;5533219;25;20029;-95
2024/04/12 12:24:48;;;;;;;6.25;1.83;;;;;;;;;;5532366;25;20020;-94
2024/04/12 12:27:19;;;;;;;4.70;1.30;;;;;;;;;;5532694;25;20029;-95
2024/04/12 12:29:53;;;;;;;8.88;1.40;;;;;;;;;;5532856;25;20478;-94
2024/04/12 12:32:26;;;;;;;5.45;1.42;;;;;;;;;;5532867;25;20024;-95
2024/04/12 12:34:54;;;;;;;6.13;1.38;;;;;;;;;;5532676;25;20017;-94
2024/04/12 12:37:24;;;;;;;4.40;1.23;;;;;;;;;;5533324;25;20017;-94
2024/04/12 12:39:51;;;;;;;6.20;1.25;;;;;;;;;;5502230;25;20028;-94
2024/04/12 12:42:19;;;;;;;4.45;1.40;;;;;;;;;;5532468;25;20036;-94
2024/04/12 12:44:47;;;;;;;9.65;1.27;;;;;;;;;;5532998;25;20029;-94
2024/04/12 12:47:20;;;;;;;5.03;1.45;;;;;;;;;;5532090;25;20029;-94
2024/04/12 12:49:47;;;;;;;7.65;1.30;;;;;;;;;;5533377;25;20022;-94
2024/04/12 12:52:14;;;;;;;3.75;0.85;;;;;;;;;;5533885;25;20033;-95
2024/04/12 12:54:42;;;;;;;4.78;1.10;;;;;;;;;;5503898;26;20017;-94
2024/04/12 12:57:11;;;;;;;5.45;2.05;;;;;;;;;;5495493;26;20017;-94
2024/04/12 12:59:43;;;;;;;3.97;1.55;;;;;;;;;;5495964;26;20476;-94
2024/04/12 13:02:14;;;;;;;3.95;1.30;;;;;;;;;;5495225;26;20467;-94
2024/04/12 13:04:42;;;;;;;4.63;1.33;;;;;;;;;;5495549;26;20026;-94
2024/04/12 13:07:10;;;;;;;5.93;1.35;;;;;;;;;;5494588;26;20468;-94
2024/04/12 13:09:37;;;;;;;3.88;1.42;;;;;;;;;;5495036;26;20021;-94
2024/04/12 13:12:11;;;;;;;4.82;1.25;;;;;;;;;;5495147;26;20024;-94
2024/04/12 13:14:45;;;;;;;5.55;1.25;;;;;;;;;;5494895;26;20026;-94
2024/04/12 13:17:14;;;;;;;5.80;1.70;;;;;;;;;;5464766;26;20030;-94
2024/04/12 13:19:42;;;;;;;5.00;1.60;;;;;;;;;;5464623;26;20021;-94
2024/04/12 13:22:11;;;;;;;5.55;1.92;;;;;;;;;;5494956;26;20021;-94
2024/04/12 13:24:39;;;;;;;3.53;1.77;;;;;;;;;;5493772;26;20030;-95
2024/04/12 13:27:09;;;;;;;6.20;1.85;;;;;;;;;;5494665;26;20017;-94
2024/04/12 13:29:37;;;;;;;6.05;1.80;;;;;;;;;;5495094;26;20023;-94
2024/04/12 13:32:10;;;;;;;6.68;2.30;;;;;;;;;;5494761;26;20025;-94
2024/04/12 13:34:37;;;;;;;5.00;1.83;;;;;;;;;;5494411;26;20365;-94
2024/04/12 13:37:06;;;;;;;8.38;2.08;;;;;;;;;;5493595;26;20026;-95
2024/04/12 13:39:36;;;;;;;13.80;2.42;;;;;;;;;;5494336;26;20452;-94
2024/04/12 13:42:06;;;;;;;13.73;2.80;;;;;;;;;;5494673;26;20030;-95
2024/04/12 13:52:53;;;;;;;4.78;2.20;;;;;;;;;;5526756;25;20030;-95
2024/04/12 13:55:22;;;;;;;6.85;2.75;;;;;;;;;;5532167;25;20021;-94
2024/04/12 13:57:54;;;;;;;6.93;2.28;;;;;;;;;;5531988;25;20064;-95
2024/04/12 14:00:30;;;;;;;6.72;2.33;;;;;;;;;;5531248;25;20021;-94
2024/04/12 14:02:58;;;;;;;5.55;2.08;;;;;;;;;;5531426;25;20017;-94
2024/04/12 14:05:33;;;;;;;8.75;2.17;;;;;;;;;;5530798;25;20028;-94
2024/04/12 14:08:09;;;;;;;5.07;1.90;;;;;;;;;;5531194;25;20029;-94
2024/04/12 14:10:37;;;;;;;8.93;2.35;;;;;;;;;;5531151;25;20021;-95
2024/04/12 14:13:05;;;;;;;5.53;2.10;;;;;;;;;;5530921;25;20056;-94
2024/04/12 14:15:35;;;;;;;6.00;2.10;;;;;;;;;;5500560;25;20033;-94
2024/04/12 14:18:02;;;;;;;6.57;2.50;;;;;;;;;;5530990;25;20020;-94
2024/04/12 14:20:29;;;;;;;8.38;2.72;;;;;;;;;;5530961;25;20016;-94
2024/04/12 14:22:57;;;;;;;7.90;3.45;;;;;;;;;;5531369;25;20135;-95
2024/04/12 14:25:26;;;;;;;8.48;2.58;;;;;;;;;;5530719;25;20020;-94
2024/04/12 14:27:53;;;;;;;7.15;2.70;;;;;;;;;;5531016;25;20025;-95
2024/04/12 14:30:21;;;;;;;5.25;2.47;;;;;;;;;;5531020;25;20021;-94
2024/04/12 14:32:51;;;;;;;8.73;2.60;;;;;;;;;;5530930;25;20021;-94
2024/04/12 14:35:22;;;;;;;5.03;2.42;;;;;;;;;;5499884;25;20461;-94
2024/04/12 14:37:49;;;;;;;8.95;2.92;;;;;;;;;;5500179;25;20020;-94
2024/04/12 14:40:20;;;;;;;8.13;3.05;;;;;;;;;;5530525;25;20029;-94
2024/04/12 14:42:47;;;;;;;7.72;3.08;;;;;;;;;;5531029;25;20031;-94
2024/04/12 14:45:15;;;;;;;6.63;2.28;;;;;;;;;;5530728;25;20024;-94
2024/04/12 14:47:59;;;;;;;6.13;2.45;;;;;;;;;;5530469;25;20034;-94
2024/04/12 14:50:26;;;;;;;12.10;3.47;;;;;;;;;;5504050;25;20009;-93
2024/04/12 14:52:54;;;;;;;8.38;2.72;;;;;;;;;;5534392;25;20021;-94
2024/04/12 14:55:21;;;;;;;6.97;3.42;;;;;;;;;;5534646;25;20013;-94
2024/04/12 14:57:50;;;;;;;7.50;3.63;;;;;;;;;;5534009;25;20021;-94
2024/04/12 15:00:18;;;;;;;8.50;3.88;;;;;;;;;;5534175;25;20455;-94
2024/04/12 15:52:10;;;;;;;8.50;3.58;;;;;;;;;;5564640;25;20016;-94
2024/04/12 15:54:45;;;;;;;13.23;3.88;;;;;;;;;;5532024;25;20009;-94
2024/04/12 16:11:06;;;;;;;6.93;2.97;;;;;;;;;;5565795;25;20017;-94
2024/04/12 16:13:34;;;;;;;8.18;3.00;;;;;;;;;;5533673;25;20364;-94
2024/04/12 16:16:02;;;;;;;11.30;3.60;;;;;;;;;;5532694;25;20017;-94
2024/04/12 16:18:31;;;;;;;9.27;2.90;;;;;;;;;;5533358;25;20021;-94
2024/04/12 16:21:01;;;;;;;10.05;3.60;;;;;;;;;;5533474;25;20459;-94
2024/04/12 16:23:30;;;;;;;9.23;3.20;;;;;;;;;;5533407;25;20025;-94
2024/04/12 16:25:58;;;;;;;9.57;3.13;;;;;;;;;;5532309;25;20029;-94
2024/04/12 16:28:26;;;;;;;10.40;3.13;;;;;;;;;;5532926;25;20355;-94
2024/04/12 16:30:55;;;;;;;7.53;3.50;;;;;;;;;;5543424;25;19997;-94
2024/04/12 16:33:23;;;;;;;8.18;3.53;;;;;;;;;;5557358;25;20000;-94
2024/04/12 16:35:50;;;;;;;6.70;2.97;;;;;;;;;;5555552;25;19992;-94
2024/04/12 16:38:18;;;;;;;9.73;3.05;;;;;;;;;;5541141;25;20419;-94
2024/04/12 16:40:46;;;;;;;9.80;3.13;;;;;;;;;;5503126;25;20020;-94
2024/04/12 16:43:13;;;;;;;9.95;3.60;;;;;;;;;;5533696;25;20022;-94
2024/04/12 16:45:40;;;;;;;8.05;3.63;;;;;;;;;;5534646;25;20025;-94
2024/04/12 16:48:08;;;;;;;7.88;3.10;;;;;;;;;;5533062;25;20028;-94
2024/04/12 16:50:35;;;;;;;11.07;3.55;;;;;;;;;;5533644;25;20029;-94
2024/04/12 16:53:03;;;;;;;11.32;3.42;;;;;;;;;;5544252;25;19997;-94
2024/04/12 16:55:30;;;;;;;10.82;3.70;;;;;;;;;;5556616;25;19981;-93
2024/04/12 16:57:59;;;;;;;7.95;3.10;;;;;;;;;;5557297;25;20000;-94
2024/04/12 17:00:28;;;;;;;10.80;3.58;;;;;;;;;;5543183;25;20000;-94
2024/04/12 17:02:56;;;;;;;10.32;3.53;;;;;;;;;;5533244;25;20020;-94
2024/04/12 17:05:24;;;;;;;8.90;3.50;;;;;;;;;;5532957;25;20475;-94
2024/04/12 17:07:51;;;;;;;10.68;3.60;;;;;;;;;;5534270;25;20452;-94
2024/04/12 17:10:18;;;;;;;9.50;3.67;;;;;;;;;;5533615;25;20025;-94
2024/04/12 17:12:45;;;;;;;12.02;3.50;;;;;;;;;;5533867;25;20021;-94
2024/04/12 17:15:13;;;;;;;9.60;3.47;;;;;;;;;;5534381;25;20023;-94
2024/04/12 17:17:40;;;;;;;6.70;3.33;;;;;;;;;;5533053;25;20017;-94
2024/04/12 17:20:09;;;;;;;9.52;3.80;;;;;;;;;;5532072;25;20479;-94
2024/04/12 17:22:39;;;;;;;9.00;3.47;;;;;;;;;;5531864;25;20024;-94